createdAt,value
2022-11-12T06:04:56.535Z,9.60
2022-11-12T06:10:20.672Z,9.60
2022-11-12T06:15:42.506Z,9.60
2022-11-12T06:21:23.512Z,9.50
2022-11-12T06:26:45.271Z,9.60
2022-11-12T06:32:06.837Z,9.60
2022-11-12T06:37:29.951Z,9.50
2022-11-12T06:42:57.986Z,9.60
2022-11-12T06:48:20.014Z,9.80
2022-11-12T06:53:43.007Z,9.90
2022-11-12T06:59:04.757Z,10.10
2022-11-12T07:04:26.452Z,10.30
2022-11-12T07:09:49.519Z,10.30
2022-11-12T07:15:12.062Z,10.40
2022-11-12T07:20:33.702Z,10.50
2022-11-12T07:26:01.933Z,10.60
2022-11-12T07:31:25.855Z,10.60
2022-11-12T07:36:51.581Z,10.60
2022-11-12T07:42:14.492Z,10.70
2022-11-12T07:47:36.699Z,10.80
2022-11-12T07:53:00.068Z,10.80
2022-11-12T07:58:23.209Z,11.00
2022-11-12T08:03:45.175Z,11.10
2022-11-12T08:09:08.519Z,11.20
2022-11-12T08:14:31.856Z,11.30
2022-11-12T08:19:55.354Z,11.50
2022-11-12T08:25:19.046Z,11.50
2022-11-12T08:30:42.432Z,11.60
2022-11-12T08:36:05.593Z,11.70
2022-11-12T08:41:27.568Z,11.80
2022-11-12T08:46:51.908Z,12.00
2022-11-12T08:52:13.456Z,12.10
2022-11-12T08:57:41.440Z,12.20
2022-11-12T09:03:05.410Z,12.30
2022-11-12T09:08:27.309Z,12.60
2022-11-12T09:13:49.432Z,12.90
2022-11-12T09:19:12.548Z,13.30
2022-11-12T09:24:34.484Z,13.70
2022-11-12T09:29:56.064Z,14.20
2022-11-12T09:35:19.305Z,14.60
2022-11-12T09:40:56.258Z,15.00
2022-11-12T09:46:34.648Z,15.40
2022-11-12T09:52:04.045Z,15.90
2022-11-12T09:57:25.819Z,16.20
2022-11-12T10:02:56.496Z,16.60
2022-11-12T10:08:38.376Z,17.00
2022-11-12T10:14:12.186Z,17.50
2022-11-12T10:19:46.027Z,18.20
2022-11-12T10:25:16.720Z,18.50
2022-11-12T10:30:38.552Z,19.10
2022-11-12T10:36:15.044Z,19.70
2022-11-12T10:41:38.243Z,20.30
2022-11-12T10:47:23.735Z,20.80
2022-11-12T10:52:57.034Z,21.40
2022-11-12T10:58:21.018Z,21.80
2022-11-12T11:03:48.830Z,22.50
2022-11-12T11:09:17.746Z,23.20
2022-11-12T11:14:40.744Z,23.50
2022-11-12T11:20:03.608Z,23.40
2022-11-12T11:25:28.929Z,23.20
2022-11-12T11:30:59.744Z,23.20
2022-11-12T11:36:30.932Z,23.10
2022-11-12T11:42:01.616Z,23.20
2022-11-12T11:47:59.418Z,23.00
2022-11-12T11:53:25.355Z,23.10
2022-11-12T11:59:26.675Z,23.20
2022-11-12T12:04:52.860Z,23.60
2022-11-12T12:10:24.776Z,23.70
2022-11-12T12:16:35.376Z,23.70
2022-11-12T12:22:01.913Z,23.60
2022-11-12T12:27:27.183Z,23.80
2022-11-12T12:32:56.882Z,24.00
2022-11-12T12:38:26.337Z,24.00
2022-11-12T12:43:53.839Z,24.10
2022-11-12T12:53:56.635Z,24.30
2022-11-12T12:59:21.952Z,24.10
2022-11-12T13:04:54.823Z,24.10
2022-11-12T13:10:48.497Z,23.90
2022-11-12T13:16:10.775Z,23.80
2022-11-12T13:21:32.826Z,24.00
2022-11-12T13:26:57.993Z,24.30
2022-11-12T13:32:43.014Z,24.10
2022-11-12T13:38:15.463Z,24.10
2022-11-12T13:43:41.376Z,24.20
2022-11-12T13:49:07.299Z,24.10
2022-11-12T13:54:35.509Z,24.10
2022-11-12T14:00:21.948Z,24.10
2022-11-12T14:05:49.699Z,24.10
2022-11-12T14:11:35.706Z,24.10
2022-11-12T14:17:09.917Z,24.20
2022-11-12T14:22:40.796Z,24.30
2022-11-12T14:28:02.582Z,24.40
2022-11-12T14:33:27.867Z,24.30
2022-11-12T14:38:53.355Z,24.20
2022-11-12T14:44:20.012Z,23.80
2022-11-12T14:49:45.364Z,23.80
2022-11-12T14:55:13.569Z,23.80
2022-11-12T15:00:42.252Z,23.80
2022-11-12T15:06:12.361Z,23.50
2022-11-12T15:11:37.104Z,23.40
2022-11-12T15:17:00.673Z,23.30
2022-11-12T15:22:24.260Z,23.00
2022-11-12T15:27:46.370Z,22.80
2022-11-12T15:33:09.861Z,22.30
2022-11-12T15:38:37.844Z,22.00
2022-11-12T15:43:59.891Z,21.60
2022-11-12T15:49:22.098Z,21.30
2022-11-12T15:54:45.076Z,21.00
2022-11-12T16:00:14.627Z,20.80
2022-11-12T16:05:36.779Z,20.50
2022-11-12T16:11:01.698Z,20.20
2022-11-12T16:16:23.139Z,19.90
2022-11-12T16:21:45.144Z,19.80
2022-11-12T16:27:08.795Z,19.70
2022-11-12T16:32:30.450Z,19.60
2022-11-12T16:37:54.675Z,19.40
2022-11-12T16:43:18.391Z,19.20
2022-11-12T16:48:40.457Z,19.00
2022-11-12T16:54:02.508Z,18.90
2022-11-12T16:59:25.519Z,18.70
2022-11-12T17:04:47.438Z,18.60
2022-11-12T17:10:10.243Z,18.50
2022-11-12T17:15:33.239Z,18.40
2022-11-12T17:20:54.958Z,18.30
2022-11-12T17:26:21.241Z,18.20
2022-11-12T17:31:44.270Z,18.10
2022-11-12T17:37:06.097Z,17.90
2022-11-12T17:42:27.804Z,17.80
2022-11-12T17:47:50.783Z,17.60
2022-11-12T17:53:12.409Z,17.50
2022-11-12T17:58:34.158Z,17.50
2022-11-12T18:03:58.150Z,17.50
2022-11-12T18:09:19.959Z,17.40
2022-11-12T18:14:41.779Z,17.40
2022-11-12T18:20:05.488Z,17.30
2022-11-12T18:25:27.148Z,17.20
2022-11-12T18:30:48.960Z,17.20
2022-11-12T18:36:14.516Z,17.10
2022-11-12T18:41:36.458Z,17.10
2022-11-12T18:46:58.368Z,17.00
2022-11-12T18:52:21.295Z,17.00
2022-11-12T18:57:43.205Z,17.00
2022-11-12T19:03:05.083Z,16.90
2022-11-12T19:08:28.483Z,16.90
2022-11-12T19:13:52.322Z,16.80
2022-11-12T19:19:15.160Z,16.80
2022-11-12T19:24:38.311Z,16.70
2022-11-12T19:30:03.170Z,16.60
2022-11-12T19:35:25.636Z,16.60
2022-11-12T19:40:48.855Z,16.50
2022-11-12T19:46:11.216Z,16.50
2022-11-12T19:51:33.247Z,16.50
2022-11-12T19:56:56.223Z,16.40
2022-11-12T20:02:18.266Z,16.40
2022-11-12T20:07:39.893Z,16.30
2022-11-12T20:13:03.404Z,16.30
2022-11-12T20:18:25.992Z,16.20
2022-11-12T20:23:48.013Z,16.20
2022-11-12T20:29:11.231Z,16.10
2022-11-12T20:34:32.995Z,16.00
2022-11-12T20:39:54.654Z,16.00
2022-11-12T20:45:17.875Z,15.90
2022-11-12T20:50:41.765Z,15.70
2022-11-12T20:56:16.159Z,15.60
2022-11-12T21:01:40.645Z,15.40
2022-11-12T21:07:05.304Z,15.40
2022-11-12T21:12:27.519Z,15.30
2022-11-12T21:17:53.491Z,15.30
2022-11-12T21:23:15.535Z,15.20
2022-11-12T21:28:38.432Z,15.10
2022-11-12T21:34:04.385Z,15.00
2022-11-12T21:39:26.283Z,14.90
2022-11-12T21:44:47.928Z,14.80
2022-11-12T21:50:11.356Z,14.70
2022-11-12T21:55:33.105Z,14.70
2022-11-12T22:00:54.546Z,14.70
2022-11-12T22:06:18.613Z,14.70
2022-11-12T22:11:40.420Z,14.60
2022-11-12T22:17:02.051Z,14.50
2022-11-12T22:22:25.483Z,14.30
2022-11-12T22:27:47.626Z,14.10
2022-11-12T22:33:09.534Z,14.00
2022-11-12T22:38:37.135Z,13.90
2022-11-12T22:44:00.880Z,13.80
2022-11-12T22:49:22.405Z,13.80
2022-11-12T22:54:45.447Z,13.90
2022-11-12T23:00:10.639Z,14.00
2022-11-12T23:05:32.322Z,14.10
2022-11-12T23:10:55.447Z,14.10
2022-11-12T23:16:19.533Z,14.20
2022-11-12T23:21:41.409Z,14.10
2022-11-12T23:27:04.419Z,13.90
